Time;durP1;ratioP1;P1;durP2;ratioP2;P2;SDS_P1;SDS_P2;PMS_P1;PMS_P2;Temp;Humidity;BMP_temperature;BMP_pressure;BME280_temperature;BME280_humidity;BME280_pressure;Samples;Min_cycle;Max_cycle;Signal;HPM_P1;HPM_P2
2022/08/31 00:05:40;;;;;;;11.55;6.65;;;;;;;;;;5049375;28;20041;-69
2022/08/31 00:08:06;;;;;;;10.23;6.63;;;;;;;;;;5064631;28;20045;-69
2022/08/31 00:10:31;;;;;;;7.25;6.20;;;;;;;;;;5062711;28;20056;-69
2022/08/31 00:12:57;;;;;;;9.10;6.03;;;;;;;;;;5046227;28;20056;-69
2022/08/31 00:15:24;;;;;;;10.52;7.60;;;;;;;;;;5048951;28;20509;-69
2022/08/31 00:17:51;;;;;;;9.23;6.40;;;;;;;;;;5049247;28;20493;-69
2022/08/31 00:20:19;;;;;;;9.43;6.28;;;;;;;;;;5048912;28;20052;-69
2022/08/31 00:22:44;;;;;;;8.90;6.38;;;;;;;;;;5047194;28;20048;-69
2022/08/31 00:25:10;;;;;;;12.38;6.03;;;;;;;;;;5048922;28;20037;-69
2022/08/31 00:27:36;;;;;;;11.30;6.78;;;;;;;;;;5048927;28;20049;-69
2022/08/31 00:30:02;;;;;;;8.13;6.15;;;;;;;;;;5047749;28;20045;-70
2022/08/31 00:32:28;;;;;;;10.00;5.75;;;;;;;;;;5045564;28;20076;-69
2022/08/31 00:34:53;;;;;;;12.35;6.40;;;;;;;;;;5047526;28;20072;-69
2022/08/31 00:37:20;;;;;;;13.18;6.60;;;;;;;;;;5048971;28;20095;-69
2022/08/31 00:39:45;;;;;;;9.95;6.35;;;;;;;;;;5051982;28;20080;-71
2022/08/31 00:42:11;;;;;;;10.10;5.97;;;;;;;;;;5051598;28;20044;-69
2022/08/31 00:44:38;;;;;;;9.13;6.25;;;;;;;;;;5063892;28;20056;-69
2022/08/31 00:47:04;;;;;;;12.02;8.15;;;;;;;;;;5036630;28;20079;-69
2022/08/31 00:49:33;;;;;;;9.15;7.78;;;;;;;;;;5047781;28;20041;-69
2022/08/31 00:52:07;;;;;;;10.88;8.23;;;;;;;;;;5047791;28;20045;-69
2022/08/31 00:54:55;;;;;;;10.13;7.72;;;;;;;;;;5013699;28;20502;-69
2022/08/31 00:57:21;;;;;;;16.63;7.18;;;;;;;;;;5037933;28;20072;-69
2022/08/31 00:59:48;;;;;;;9.50;6.70;;;;;;;;;;5051105;28;20044;-68
2022/08/31 01:02:13;;;;;;;13.88;7.22;;;;;;;;;;5035758;28;20045;-69
2022/08/31 01:04:39;;;;;;;12.18;6.43;;;;;;;;;;5031578;28;20197;-68
2022/08/31 01:07:06;;;;;;;8.35;6.78;;;;;;;;;;5030366;28;20128;-68
2022/08/31 01:09:37;;;;;;;7.38;6.35;;;;;;;;;;5032321;28;20049;-71
2022/08/31 01:12:06;;;;;;;13.27;7.40;;;;;;;;;;5032533;28;20048;-69
2022/08/31 01:14:33;;;;;;;8.95;6.75;;;;;;;;;;5047938;28;20045;-69
2022/08/31 01:17:00;;;;;;;8.40;6.65;;;;;;;;;;5050513;28;20148;-70
2022/08/31 01:19:33;;;;;;;11.07;7.60;;;;;;;;;;5052118;28;20048;-69
2022/08/31 01:22:14;;;;;;;11.07;7.57;;;;;;;;;;5052029;28;20041;-69
2022/08/31 01:24:43;;;;;;;14.77;7.25;;;;;;;;;;5049296;28;20048;-69
2022/08/31 01:27:10;;;;;;;8.13;7.20;;;;;;;;;;5043941;28;20049;-70
2022/08/31 01:29:36;;;;;;;10.43;8.02;;;;;;;;;;5049972;28;20052;-70
2022/08/31 01:32:03;;;;;;;10.43;7.57;;;;;;;;;;5050142;28;20045;-70
2022/08/31 01:34:28;;;;;;;11.20;7.55;;;;;;;;;;5050602;28;20060;-70
2022/08/31 01:36:54;;;;;;;9.90;7.68;;;;;;;;;;5066667;28;20045;-70
2022/08/31 01:39:20;;;;;;;12.85;7.72;;;;;;;;;;5050361;28;20065;-70
2022/08/31 01:41:46;;;;;;;15.30;7.40;;;;;;;;;;5051304;28;20088;-70
2022/08/31 01:44:17;;;;;;;12.13;8.07;;;;;;;;;;5049775;28;20052;-70
2022/08/31 01:46:43;;;;;;;12.95;7.25;;;;;;;;;;5049339;28;20048;-70
2022/08/31 01:49:09;;;;;;;10.80;7.50;;;;;;;;;;5050491;28;20049;-70
2022/08/31 01:51:34;;;;;;;9.80;7.03;;;;;;;;;;5066067;28;20049;-70
2022/08/31 01:54:01;;;;;;;7.70;6.90;;;;;;;;;;5049540;28;20101;-70
2022/08/31 01:56:34;;;;;;;11.50;7.22;;;;;;;;;;5050489;28;20493;-70
2022/08/31 01:59:03;;;;;;;10.73;7.50;;;;;;;;;;5049802;28;20044;-70
2022/08/31 02:01:55;;;;;;;9.45;7.20;;;;;;;;;;5033909;28;20088;-70
2022/08/31 02:04:23;;;;;;;14.98;7.10;;;;;;;;;;5049113;28;20033;-70
2022/08/31 02:06:56;;;;;;;11.13;7.13;;;;;;;;;;5064924;28;20045;-70
2022/08/31 02:09:22;;;;;;;12.20;7.35;;;;;;;;;;5049627;28;20064;-69
2022/08/31 02:11:48;;;;;;;11.02;7.10;;;;;;;;;;5062209;28;20061;-70
2022/08/31 02:14:14;;;;;;;9.20;6.75;;;;;;;;;;5049072;28;20490;-70
2022/08/31 02:16:40;;;;;;;17.27;7.78;;;;;;;;;;5055573;28;20045;-69
2022/08/31 02:19:06;;;;;;;11.23;7.85;;;;;;;;;;5049180;28;20040;-69
2022/08/31 02:21:32;;;;;;;12.57;8.85;;;;;;;;;;5032494;28;20179;-71
2022/08/31 02:23:58;;;;;;;11.20;8.38;;;;;;;;;;5048227;28;20037;-70
2022/08/31 02:26:24;;;;;;;13.57;8.70;;;;;;;;;;5048330;28;20044;-72
2022/08/31 02:28:50;;;;;;;12.48;8.75;;;;;;;;;;5065896;28;20041;-71
2022/08/31 02:31:16;;;;;;;13.98;9.07;;;;;;;;;;5059019;28;20049;-70
2022/08/31 02:33:49;;;;;;;12.32;8.40;;;;;;;;;;5047677;28;20041;-70
2022/08/31 02:36:15;;;;;;;12.32;8.40;;;;;;;;;;5050091;28;20420;-69
2022/08/31 02:38:40;;;;;;;11.18;8.40;;;;;;;;;;5050040;28;20040;-70
2022/08/31 02:41:06;;;;;;;11.65;8.07;;;;;;;;;;5050438;28;20043;-71
2022/08/31 02:43:34;;;;;;;12.60;7.57;;;;;;;;;;5048821;28;20493;-70
2022/08/31 02:45:59;;;;;;;9.93;7.70;;;;;;;;;;5047696;28;20091;-69
2022/08/31 02:48:29;;;;;;;11.02;8.02;;;;;;;;;;5064827;28;20493;-69
2022/08/31 02:51:03;;;;;;;13.05;8.98;;;;;;;;;;5065133;28;20045;-70
2022/08/31 02:53:28;;;;;;;13.90;8.35;;;;;;;;;;5065208;28;20047;-70
2022/08/31 02:55:55;;;;;;;15.13;8.95;;;;;;;;;;5062225;28;20400;-69
2022/08/31 02:58:20;;;;;;;12.85;8.27;;;;;;;;;;5065166;28;20048;-70
2022/08/31 03:00:47;;;;;;;14.13;8.30;;;;;;;;;;5061930;28;20095;-70
2022/08/31 03:03:15;;;;;;;11.75;8.50;;;;;;;;;;5048390;28;20073;-72
2022/08/31 03:05:40;;;;;;;12.00;8.48;;;;;;;;;;5048631;28;20045;-70
2022/08/31 03:08:06;;;;;;;12.30;8.98;;;;;;;;;;5046381;28;20048;-69
2022/08/31 03:10:32;;;;;;;14.10;8.55;;;;;;;;;;5048058;28;20061;-70
2022/08/31 03:12:57;;;;;;;12.27;8.02;;;;;;;;;;5064745;28;20064;-70
2022/08/31 03:15:25;;;;;;;11.30;8.38;;;;;;;;;;5065009;28;20112;-70
2022/08/31 03:17:51;;;;;;;13.73;8.70;;;;;;;;;;5047336;28;20087;-69
2022/08/31 03:20:21;;;;;;;13.70;9.25;;;;;;;;;;5048134;28;20045;-69
2022/08/31 03:22:47;;;;;;;11.80;8.57;;;;;;;;;;5064246;28;20053;-69
2022/08/31 03:25:13;;;;;;;13.77;8.65;;;;;;;;;;5057341;28;20039;-69
2022/08/31 03:27:39;;;;;;;15.27;8.93;;;;;;;;;;5037280;28;20123;-69
2022/08/31 03:30:10;;;;;;;12.23;8.38;;;;;;;;;;5046791;28;20049;-69
2022/08/31 03:32:39;;;;;;;11.05;9.00;;;;;;;;;;5047099;28;20056;-69
2022/08/31 03:35:06;;;;;;;14.10;8.35;;;;;;;;;;5049707;28;20049;-69
2022/08/31 03:37:32;;;;;;;11.98;7.90;;;;;;;;;;5048342;28;20045;-69
2022/08/31 03:39:59;;;;;;;10.25;7.82;;;;;;;;;;5043591;28;20040;-70
2022/08/31 03:42:25;;;;;;;12.98;9.00;;;;;;;;;;5052286;28;20072;-71
2022/08/31 03:44:50;;;;;;;11.07;8.95;;;;;;;;;;5047909;28;20409;-71
2022/08/31 03:47:21;;;;;;;12.40;9.18;;;;;;;;;;5049584;28;20409;-70
2022/08/31 03:49:47;;;;;;;11.48;8.55;;;;;;;;;;5032241;28;20044;-71
2022/08/31 03:52:20;;;;;;;12.50;8.38;;;;;;;;;;5048143;28;20379;-70
2022/08/31 03:54:51;;;;;;;13.32;8.50;;;;;;;;;;5045155;28;20056;-70
2022/08/31 03:57:17;;;;;;;11.93;8.98;;;;;;;;;;5029322;28;20041;-70
2022/08/31 03:59:43;;;;;;;12.55;8.55;;;;;;;;;;5029601;28;20529;-70
2022/08/31 04:02:31;;;;;;;11.55;8.15;;;;;;;;;;5036715;28;20504;-70
2022/08/31 04:05:16;;;;;;;12.05;8.40;;;;;;;;;;5049314;28;20087;-70
2022/08/31 04:08:00;;;;;;;13.07;8.75;;;;;;;;;;5049294;28;20056;-70
2022/08/31 04:10:47;;;;;;;12.25;8.10;;;;;;;;;;5048604;28;20060;-70
2022/08/31 04:13:30;;;;;;;13.43;8.10;;;;;;;;;;5048911;28;20055;-70
2022/08/31 04:16:19;;;;;;;11.65;7.68;;;;;;;;;;5052742;28;20114;-70
2022/08/31 04:19:06;;;;;;;13.52;8.25;;;;;;;;;;5050289;28;20044;-70
2022/08/31 04:21:36;;;;;;;9.75;8.02;;;;;;;;;;5051645;28;20075;-70
2022/08/31 04:24:02;;;;;;;11.70;7.38;;;;;;;;;;5065546;28;20040;-71
2022/08/31 04:26:32;;;;;;;10.05;7.72;;;;;;;;;;5047466;28;20156;-71
2022/08/31 04:28:57;;;;;;;12.48;7.20;;;;;;;;;;5042942;28;20048;-70
2022/08/31 04:31:25;;;;;;;10.07;7.25;;;;;;;;;;5050772;28;20095;-70
2022/08/31 04:33:51;;;;;;;11.68;7.72;;;;;;;;;;5039716;28;20069;-70
2022/08/31 04:36:22;;;;;;;12.52;7.45;;;;;;;;;;5045419;28;20045;-71
2022/08/31 04:38:53;;;;;;;11.13;7.50;;;;;;;;;;5042124;28;20121;-70
2022/08/31 04:41:21;;;;;;;13.60;7.15;;;;;;;;;;5049364;28;20500;-70
2022/08/31 04:43:50;;;;;;;16.10;8.57;;;;;;;;;;5047798;28;20037;-70
2022/08/31 04:46:17;;;;;;;12.25;8.95;;;;;;;;;;5043077;28;20061;-70
2022/08/31 04:48:43;;;;;;;15.25;9.20;;;;;;;;;;5058087;28;20115;-70
2022/08/31 04:51:13;;;;;;;14.48;8.65;;;;;;;;;;5051089;28;20045;-70
2022/08/31 04:53:40;;;;;;;18.83;9.48;;;;;;;;;;5067583;28;20456;-71
2022/08/31 04:56:13;;;;;;;15.48;8.95;;;;;;;;;;5067521;28;20067;-70
2022/08/31 04:58:45;;;;;;;16.08;8.00;;;;;;;;;;5066171;28;20080;-70
2022/08/31 05:01:13;;;;;;;17.30;8.77;;;;;;;;;;5050881;28;20091;-70
2022/08/31 05:03:58;;;;;;;10.13;7.47;;;;;;;;;;5051867;28;20091;-70
2022/08/31 05:06:27;;;;;;;10.77;7.47;;;;;;;;;;5050869;28;20484;-70
2022/08/31 05:08:55;;;;;;;11.73;7.60;;;;;;;;;;5049121;28;20052;-70
2022/08/31 05:11:22;;;;;;;9.98;7.57;;;;;;;;;;5050604;28;20111;-70
2022/08/31 05:13:49;;;;;;;10.60;7.53;;;;;;;;;;5066936;28;20556;-70
2022/08/31 05:16:16;;;;;;;9.70;7.25;;;;;;;;;;5060416;28;20132;-70
2022/08/31 05:18:43;;;;;;;13.27;7.72;;;;;;;;;;5047196;28;20540;-70
2022/08/31 05:21:24;;;;;;;12.00;7.68;;;;;;;;;;5050168;28;20048;-70
2022/08/31 05:23:50;;;;;;;10.20;7.85;;;;;;;;;;5058195;28;20053;-70
2022/08/31 05:26:21;;;;;;;13.30;7.75;;;;;;;;;;5036199;28;20053;-70
2022/08/31 05:28:46;;;;;;;9.73;7.53;;;;;;;;;;5049326;28;20130;-70
2022/08/31 05:31:12;;;;;;;12.88;8.02;;;;;;;;;;5049506;28;20098;-70
2022/08/31 05:33:42;;;;;;;11.00;8.18;;;;;;;;;;5049652;28;20055;-70
2022/08/31 05:36:10;;;;;;;12.25;7.72;;;;;;;;;;5066730;28;20045;-70
2022/08/31 05:38:36;;;;;;;12.85;8.27;;;;;;;;;;5066464;28;20163;-70
2022/08/31 05:41:02;;;;;;;13.45;7.68;;;;;;;;;;5061310;28;20049;-70
2022/08/31 05:43:28;;;;;;;10.95;7.82;;;;;;;;;;5051288;28;20123;-70
2022/08/31 05:45:54;;;;;;;11.70;8.13;;;;;;;;;;5049402;28;20390;-70
2022/08/31 05:48:20;;;;;;;11.85;7.93;;;;;;;;;;5049987;28;20068;-70
2022/08/31 05:50:47;;;;;;;10.68;7.47;;;;;;;;;;5048998;28;20501;-71
2022/08/31 05:53:13;;;;;;;14.07;7.32;;;;;;;;;;5048228;28;20064;-69
2022/08/31 05:55:39;;;;;;;10.07;7.70;;;;;;;;;;5049326;28;20032;-69
2022/08/31 05:58:05;;;;;;;9.95;7.25;;;;;;;;;;5051406;28;20083;-69
2022/08/31 06:00:31;;;;;;;14.82;7.05;;;;;;;;;;5050556;28;20045;-70
2022/08/31 06:03:14;;;;;;;13.68;8.38;;;;;;;;;;5048415;28;20048;-69
2022/08/31 06:05:40;;;;;;;8.73;7.43;;;;;;;;;;5049568;28;20041;-69
2022/08/31 06:08:06;;;;;;;18.42;7.95;;;;;;;;;;5066346;28;20049;-69
2022/08/31 06:10:32;;;;;;;10.40;7.22;;;;;;;;;;5065668;28;20509;-69
2022/08/31 06:12:57;;;;;;;13.98;7.38;;;;;;;;;;5065865;28;20440;-69
2022/08/31 06:15:23;;;;;;;12.02;7.28;;;;;;;;;;5048439;28;20045;-69
2022/08/31 06:17:48;;;;;;;10.05;7.10;;;;;;;;;;5049918;28;20430;-69
2022/08/31 06:20:16;;;;;;;9.98;7.45;;;;;;;;;;5049972;28;20068;-69
2022/08/31 06:22:45;;;;;;;8.27;6.95;;;;;;;;;;5049205;28;20073;-69
2022/08/31 06:25:17;;;;;;;11.70;7.60;;;;;;;;;;5048599;28;20045;-69
2022/08/31 06:27:48;;;;;;;15.57;8.18;;;;;;;;;;5058154;28;20400;-71
2022/08/31 06:30:18;;;;;;;16.02;8.00;;;;;;;;;;5045546;28;20048;-71
2022/08/31 06:32:46;;;;;;;13.88;8.02;;;;;;;;;;5050019;28;20099;-69
2022/08/31 06:35:14;;;;;;;9.65;7.25;;;;;;;;;;5062554;28;20040;-69
2022/08/31 06:38:01;;;;;;;11.73;7.60;;;;;;;;;;5060042;28;20469;-70
2022/08/31 06:40:46;;;;;;;13.48;7.63;;;;;;;;;;5047539;28;20052;-69
2022/08/31 06:43:38;;;;;;;11.32;7.57;;;;;;;;;;5044008;28;20061;-70
2022/08/31 06:46:18;;;;;;;9.43;6.53;;;;;;;;;;5059886;28;20045;-70
2022/08/31 06:49:09;;;;;;;11.43;7.53;;;;;;;;;;5041666;28;20056;-69
2022/08/31 06:51:36;;;;;;;10.30;7.20;;;;;;;;;;5067712;28;20120;-69
2022/08/31 06:54:07;;;;;;;10.02;6.97;;;;;;;;;;5059650;28;20060;-71
2022/08/31 06:56:51;;;;;;;10.85;7.13;;;;;;;;;;5062808;28;20132;-70
2022/08/31 06:59:44;;;;;;;12.10;7.60;;;;;;;;;;5047344;28;20048;-70
2022/08/31 07:02:27;;;;;;;13.27;7.20;;;;;;;;;;5047036;28;20083;-70
2022/08/31 07:04:52;;;;;;;13.35;7.30;;;;;;;;;;5063898;28;20041;-69
2022/08/31 07:07:18;;;;;;;10.80;7.10;;;;;;;;;;5062479;28;20074;-69
2022/08/31 07:09:44;;;;;;;10.45;7.32;;;;;;;;;;5065298;28;20132;-68
2022/08/31 07:12:10;;;;;;;12.35;7.22;;;;;;;;;;5055939;28;20468;-70
2022/08/31 07:14:36;;;;;;;11.98;7.80;;;;;;;;;;5071090;28;20133;-70
2022/08/31 07:17:03;;;;;;;12.95;8.07;;;;;;;;;;5047810;28;20047;-70
2022/08/31 07:19:30;;;;;;;11.43;8.35;;;;;;;;;;5063659;28;20520;-70
2022/08/31 07:21:59;;;;;;;15.77;8.43;;;;;;;;;;5046214;28;20032;-69
2022/08/31 07:24:29;;;;;;;15.32;8.68;;;;;;;;;;5065017;28;20045;-69
2022/08/31 07:27:03;;;;;;;11.40;7.80;;;;;;;;;;5060694;28;20045;-70
2022/08/31 07:29:39;;;;;;;10.80;8.10;;;;;;;;;;5046626;28;20075;-72
2022/08/31 07:32:12;;;;;;;10.55;8.25;;;;;;;;;;5051024;28;20043;-70
2022/08/31 07:34:39;;;;;;;14.05;9.23;;;;;;;;;;5058175;28;20493;-72
2022/08/31 07:43:13;;;;;;;19.23;9.95;;;;;;;;;;5053362;28;20052;-70
2022/08/31 07:45:40;;;;;;;12.85;9.23;;;;;;;;;;5064671;28;20037;-71
2022/08/31 07:48:07;;;;;;;16.40;9.48;;;;;;;;;;5049573;28;20056;-71
2022/08/31 07:51:08;;;;;;;14.07;8.30;;;;;;;;;;5050558;28;20128;-71
2022/08/31 07:53:46;;;;;;;12.23;8.95;;;;;;;;;;5054885;28;20865;-71
2022/08/31 07:56:24;;;;;;;13.63;8.60;;;;;;;;;;5066754;28;20044;-70
2022/08/31 07:58:57;;;;;;;19.25;8.93;;;;;;;;;;5050334;28;20056;-70
2022/08/31 08:01:22;;;;;;;10.65;8.48;;;;;;;;;;5051229;28;20135;-70
2022/08/31 08:03:52;;;;;;;11.48;8.18;;;;;;;;;;5052167;28;20087;-70
2022/08/31 08:06:36;;;;;;;11.88;8.98;;;;;;;;;;5058662;28;20463;-71
2022/08/31 08:09:31;;;;;;;9.38;7.70;;;;;;;;;;5059644;28;20044;-70
2022/08/31 08:12:16;;;;;;;11.82;8.63;;;;;;;;;;5056683;28;20041;-71
2022/08/31 08:15:07;;;;;;;12.75;8.25;;;;;;;;;;5032659;28;20049;-70
2022/08/31 08:17:42;;;;;;;13.55;8.80;;;;;;;;;;5060941;28;20397;-71
2022/08/31 08:20:10;;;;;;;13.63;8.43;;;;;;;;;;5057918;28;20115;-70
2022/08/31 08:22:38;;;;;;;14.38;8.60;;;;;;;;;;5067778;28;20040;-71
2022/08/31 08:25:13;;;;;;;10.65;8.18;;;;;;;;;;5053586;28;20036;-70
2022/08/31 08:27:57;;;;;;;11.45;8.00;;;;;;;;;;5052277;28;20135;-69
2022/08/31 08:30:31;;;;;;;12.65;8.45;;;;;;;;;;5062919;28;20037;-69
2022/08/31 08:33:00;;;;;;;11.75;8.40;;;;;;;;;;5067996;28;20051;-69
2022/08/31 08:35:29;;;;;;;15.18;8.48;;;;;;;;;;5057191;28;20049;-68
2022/08/31 08:37:56;;;;;;;15.82;8.63;;;;;;;;;;5061372;28;20098;-69
2022/08/31 08:40:41;;;;;;;12.50;8.40;;;;;;;;;;5054216;28;20535;-71
2022/08/31 08:43:15;;;;;;;12.32;8.65;;;;;;;;;;5034063;28;20628;-72
2022/08/31 08:45:48;;;;;;;14.07;7.70;;;;;;;;;;5071514;28;20044;-72
2022/08/31 08:48:16;;;;;;;11.93;7.30;;;;;;;;;;5051176;28;20135;-71
2022/08/31 08:50:42;;;;;;;10.98;7.60;;;;;;;;;;5058243;28;20493;-70
2022/08/31 08:53:14;;;;;;;13.88;7.60;;;;;;;;;;5064734;28;20051;-71
2022/08/31 08:55:50;;;;;;;15.88;8.10;;;;;;;;;;5061074;28;20127;-69
2022/08/31 08:58:18;;;;;;;14.65;7.78;;;;;;;;;;5050197;28;20454;-69
2022/08/31 09:00:52;;;;;;;11.05;6.75;;;;;;;;;;5044425;28;20033;-68
2022/08/31 09:03:29;;;;;;;17.42;8.13;;;;;;;;;;5037346;28;20034;-70
2022/08/31 09:06:33;;;;;;;10.70;7.28;;;;;;;;;;5032059;28;20100;-70
2022/08/31 09:09:17;;;;;;;8.20;6.97;;;;;;;;;;5050724;28;20036;-71
2022/08/31 09:12:06;;;;;;;7.72;6.50;;;;;;;;;;5064262;28;20791;-69
2022/08/31 09:15:06;;;;;;;13.43;8.35;;;;;;;;;;5063139;28;20052;-70
2022/08/31 09:17:58;;;;;;;11.20;7.63;;;;;;;;;;5029152;28;20505;-69
2022/08/31 09:20:27;;;;;;;10.45;8.18;;;;;;;;;;5068560;28;20048;-70
2022/08/31 09:22:56;;;;;;;8.77;7.50;;;;;;;;;;5047661;28;20057;-69
2022/08/31 09:25:33;;;;;;;11.45;8.00;;;;;;;;;;5066868;28;20109;-69
2022/08/31 09:28:13;;;;;;;11.95;7.68;;;;;;;;;;5064816;28;20043;-68
2022/08/31 09:30:53;;;;;;;15.77;8.88;;;;;;;;;;5062738;28;20127;-70
2022/08/31 09:33:25;;;;;;;15.32;8.80;;;;;;;;;;5055519;28;20090;-70
2022/08/31 09:35:57;;;;;;;15.27;10.05;;;;;;;;;;5066061;28;20109;-70
2022/08/31 09:38:30;;;;;;;;;;;;;;;;;;5069523;28;20107;-71
2022/08/31 09:40:56;;;;;;;21.17;10.85;;;;;;;;;;5027988;28;19979;-71
2022/08/31 09:43:23;;;;;;;19.38;11.30;;;;;;;;;;5034570;28;20065;-71
2022/08/31 09:46:18;;;;;;;20.30;11.85;;;;;;;;;;5032575;28;20080;-72
2022/08/31 09:49:07;;;;;;;15.55;11.73;;;;;;;;;;5045348;28;20053;-70
2022/08/31 09:51:36;;;;;;;28.23;13.70;;;;;;;;;;5036427;28;20059;-70
2022/08/31 09:57:02;;;;;;;17.10;10.60;;;;;;;;;;5059741;28;20080;-71
2022/08/31 09:59:29;;;;;;;18.80;11.10;;;;;;;;;;5059628;28;20055;-72
2022/08/31 10:01:59;;;;;;;18.10;11.98;;;;;;;;;;5054217;28;20572;-73
2022/08/31 10:04:35;;;;;;;28.65;13.00;;;;;;;;;;5059370;28;20047;-70
2022/08/31 10:07:12;;;;;;;20.85;13.27;;;;;;;;;;5056426;28;20045;-71
2022/08/31 10:09:45;;;;;;;12.35;8.43;;;;;;;;;;5048832;28;20084;-74
2022/08/31 10:12:32;;;;;;;12.98;9.02;;;;;;;;;;5061241;28;20060;-72
2022/08/31 10:15:02;;;;;;;17.77;10.45;;;;;;;;;;5034501;28;20496;-72
2022/08/31 10:17:37;;;;;;;11.65;8.68;;;;;;;;;;5053623;28;20040;-72
2022/08/31 10:20:07;;;;;;;13.65;8.82;;;;;;;;;;5047290;28;20043;-73
2022/08/31 10:22:47;;;;;;;11.45;9.18;;;;;;;;;;5064968;28;20045;-71
2022/08/31 10:25:29;;;;;;;12.55;8.68;;;;;;;;;;5069157;28;20041;-69
2022/08/31 10:28:23;;;;;;;10.32;8.02;;;;;;;;;;5053830;28;20039;-70
2022/08/31 10:30:58;;;;;;;9.32;7.30;;;;;;;;;;5034401;28;20057;-70
2022/08/31 10:35:01;;;;;;;12.85;7.43;;;;;;;;;;5049848;28;20049;-73
2022/08/31 10:36:15;;;;;;;;;;;;;;;;;;5064616;28;20044;-68
2022/08/31 10:38:47;;;;;;;12.95;7.70;;;;;;;;;;5054747;28;19935;-72
2022/08/31 10:41:15;;;;;;;13.38;7.43;;;;;;;;;;5047191;28;20541;-68
2022/08/31 10:44:03;;;;;;;11.82;6.72;;;;;;;;;;5046464;28;20071;-68
2022/08/31 10:46:29;;;;;;;8.80;5.50;;;;;;;;;;5047141;28;20049;-72
2022/08/31 10:48:56;;;;;;;9.32;6.47;;;;;;;;;;5046848;28;20153;-70
2022/08/31 10:51:34;;;;;;;14.63;7.32;;;;;;;;;;5049530;28;20059;-72
2022/08/31 10:54:20;;;;;;;10.35;6.30;;;;;;;;;;5048658;28;20515;-70
2022/08/31 10:56:57;;;;;;;8.88;6.90;;;;;;;;;;5048307;28;20103;-69
2022/08/31 10:59:35;;;;;;;9.55;6.90;;;;;;;;;;5049754;28;20045;-70
2022/08/31 11:02:37;;;;;;;14.10;8.13;;;;;;;;;;5048935;28;20045;-69
2022/08/31 11:05:25;;;;;;;14.57;8.27;;;;;;;;;;5048028;28;20124;-69
2022/08/31 11:07:57;;;;;;;14.77;7.82;;;;;;;;;;5048385;28;20616;-68
2022/08/31 11:10:41;;;;;;;12.35;7.40;;;;;;;;;;5048911;28;20114;-68
2022/08/31 11:13:35;;;;;;;13.95;7.05;;;;;;;;;;5048032;28;20097;-69
2022/08/31 11:16:30;;;;;;;18.20;7.70;;;;;;;;;;5029173;28;20044;-69
2022/08/31 11:19:11;;;;;;;8.88;7.40;;;;;;;;;;5045240;28;20581;-68
2022/08/31 11:21:52;;;;;;;12.13;7.75;;;;;;;;;;5047798;28;20033;-68
2022/08/31 11:24:24;;;;;;;12.48;7.88;;;;;;;;;;5046564;28;20052;-70
2022/08/31 11:27:04;;;;;;;12.38;8.10;;;;;;;;;;5047632;28;20114;-69
2022/08/31 11:29:55;;;;;;;10.52;8.48;;;;;;;;;;5062441;28;20468;-69
2022/08/31 11:32:29;;;;;;;13.13;8.03;;;;;;;;;;5048544;28;20461;-71
2022/08/31 11:34:59;;;;;;;10.73;8.23;;;;;;;;;;5056114;28;20299;-70
2022/08/31 11:37:54;;;;;;;11.48;8.15;;;;;;;;;;5063342;28;20135;-70
2022/08/31 11:40:40;;;;;;;9.48;7.85;;;;;;;;;;5062681;28;20052;-71
2022/08/31 11:43:30;;;;;;;10.10;8.20;;;;;;;;;;5049093;28;20041;-71
2022/08/31 11:46:00;;;;;;;11.88;7.93;;;;;;;;;;5045150;28;20048;-67
2022/08/31 11:48:52;;;;;;;11.05;8.20;;;;;;;;;;5060368;28;20469;-68
2022/08/31 11:51:32;;;;;;;11.40;7.45;;;;;;;;;;5049180;28;20041;-70
2022/08/31 11:54:25;;;;;;;12.60;8.45;;;;;;;;;;5021546;28;20045;-69
2022/08/31 11:56:55;;;;;;;10.65;7.72;;;;;;;;;;5008071;28;20041;-68
2022/08/31 11:59:34;;;;;;;11.75;8.20;;;;;;;;;;5045828;28;20131;-69
2022/08/31 12:02:20;;;;;;;12.45;8.52;;;;;;;;;;5040929;28;20037;-70
2022/08/31 12:04:46;;;;;;;11.75;8.13;;;;;;;;;;5040058;28;20548;-70
2022/08/31 12:07:25;;;;;;;12.15;8.55;;;;;;;;;;5049114;28;20136;-70
2022/08/31 12:10:28;;;;;;;9.65;7.63;;;;;;;;;;5047592;28;20545;-69
2022/08/31 12:13:36;;;;;;;16.83;8.00;;;;;;;;;;5047469;28;20055;-70
2022/08/31 12:16:16;;;;;;;10.48;7.63;;;;;;;;;;5034903;28;20069;-70
2022/08/31 12:19:00;;;;;;;12.55;7.43;;;;;;;;;;5047215;28;20041;-70
2022/08/31 12:24:39;;;;;;;10.85;8.43;;;;;;;;;;5045908;28;20044;-70
2022/08/31 12:27:08;;;;;;;15.05;8.43;;;;;;;;;;5048823;28;20044;-70
2022/08/31 12:29:36;;;;;;;19.00;9.05;;;;;;;;;;5048995;28;20049;-70
2022/08/31 12:32:18;;;;;;;12.52;8.35;;;;;;;;;;5035614;28;20050;-70
2022/08/31 12:34:46;;;;;;;14.45;9.07;;;;;;;;;;5026659;28;20076;-71
2022/08/31 12:37:38;;;;;;;12.63;8.13;;;;;;;;;;5032839;28;20056;-70
2022/08/31 12:40:18;;;;;;;11.50;7.70;;;;;;;;;;5018777;28;20042;-70
2022/08/31 12:42:49;;;;;;;13.07;8.10;;;;;;;;;;5029531;28;20056;-69
2022/08/31 12:45:16;;;;;;;11.52;9.15;;;;;;;;;;5041332;28;20084;-69
2022/08/31 12:47:47;;;;;;;15.57;9.00;;;;;;;;;;5024022;28;20099;-69
2022/08/31 12:50:21;;;;;;;14.13;9.95;;;;;;;;;;5046767;28;20579;-70
2022/08/31 12:53:14;;;;;;;13.50;10.32;;;;;;;;;;5050624;28;20107;-70
2022/08/31 12:56:02;;;;;;;15.90;9.93;;;;;;;;;;5050258;28;20060;-71
2022/08/31 12:58:28;;;;;;;17.00;10.15;;;;;;;;;;5053458;28;20138;-71
2022/08/31 13:01:14;;;;;;;17.83;12.05;;;;;;;;;;5038688;28;20500;-70
2022/08/31 13:03:46;;;;;;;12.55;9.77;;;;;;;;;;5048184;28;20114;-70
2022/08/31 13:06:15;;;;;;;15.82;10.55;;;;;;;;;;5047468;28;20238;-70
2022/08/31 13:08:42;;;;;;;15.27;9.70;;;;;;;;;;5011046;28;20098;-70
2022/08/31 13:11:34;;;;;;;18.08;10.32;;;;;;;;;;5029007;28;20060;-72
2022/08/31 13:14:18;;;;;;;20.70;13.75;;;;;;;;;;5028125;28;20059;-72
2022/08/31 13:16:54;;;;;;;15.25;11.75;;;;;;;;;;5042397;28;20132;-71
2022/08/31 13:19:28;;;;;;;15.40;11.45;;;;;;;;;;5029982;28;20049;-70
2022/08/31 13:22:04;;;;;;;17.23;12.55;;;;;;;;;;5011482;28;20192;-72
2022/08/31 13:24:33;;;;;;;17.88;12.38;;;;;;;;;;5026705;28;20140;-72
2022/08/31 13:27:07;;;;;;;13.30;10.82;;;;;;;;;;5028668;28;20148;-72
2022/08/31 13:29:39;;;;;;;15.85;11.80;;;;;;;;;;5031979;28;20581;-72
2022/08/31 13:32:06;;;;;;;14.88;11.38;;;;;;;;;;5030304;28;20053;-72
2022/08/31 13:34:40;;;;;;;16.25;12.65;;;;;;;;;;5039458;28;20123;-71
2022/08/31 13:37:11;;;;;;;16.70;11.65;;;;;;;;;;5034818;28;20051;-71
2022/08/31 13:39:43;;;;;;;16.33;11.67;;;;;;;;;;5032452;28;20416;-72
2022/08/31 13:42:25;;;;;;;15.50;11.25;;;;;;;;;;5038424;28;20033;-70
2022/08/31 13:44:54;;;;;;;15.02;11.27;;;;;;;;;;5031003;28;20559;-70
2022/08/31 13:47:22;;;;;;;15.52;10.65;;;;;;;;;;5033373;28;20044;-70
2022/08/31 13:49:52;;;;;;;12.45;10.63;;;;;;;;;;5042086;28;20520;-71
2022/08/31 13:52:26;;;;;;;13.65;11.63;;;;;;;;;;5036322;28;20102;-71
2022/08/31 13:54:57;;;;;;;13.98;9.85;;;;;;;;;;5036427;28;20088;-70
2022/08/31 13:57:30;;;;;;;13.63;11.63;;;;;;;;;;5037151;28;20067;-72
2022/08/31 14:00:21;;;;;;;12.85;9.25;;;;;;;;;;5041147;28;20090;-70
2022/08/31 14:02:47;;;;;;;14.88;10.15;;;;;;;;;;5038857;28;20556;-70
2022/08/31 14:05:30;;;;;;;17.35;10.35;;;;;;;;;;5040440;28;20038;-71
2022/08/31 14:08:00;;;;;;;14.27;10.30;;;;;;;;;;5033727;28;20049;-70
2022/08/31 14:10:43;;;;;;;14.93;10.02;;;;;;;;;;5031492;28;20938;-70
2022/08/31 14:13:25;;;;;;;15.10;9.88;;;;;;;;;;5028924;28;20057;-70
2022/08/31 14:16:01;;;;;;;11.50;9.70;;;;;;;;;;5034785;28;20460;-70
2022/08/31 14:18:41;;;;;;;15.15;10.10;;;;;;;;;;5047290;28;20533;-70
2022/08/31 14:21:09;;;;;;;12.45;11.15;;;;;;;;;;5037154;28;20092;-70
2022/08/31 14:23:43;;;;;;;14.38;10.25;;;;;;;;;;5041249;28;20037;-69
2022/08/31 14:26:11;;;;;;;11.10;7.85;;;;;;;;;;5045944;28;20040;-71
2022/08/31 14:28:39;;;;;;;13.60;8.07;;;;;;;;;;5051012;28;20098;-70
2022/08/31 14:31:23;;;;;;;15.82;7.95;;;;;;;;;;5039504;28;20087;-70
2022/08/31 14:33:52;;;;;;;10.70;7.47;;;;;;;;;;5038762;28;20049;-70
2022/08/31 14:36:18;;;;;;;10.25;7.35;;;;;;;;;;5040713;28;20054;-69
2022/08/31 14:38:45;;;;;;;9.10;6.60;;;;;;;;;;5040077;28;20041;-69
2022/08/31 14:41:15;;;;;;;10.02;7.28;;;;;;;;;;5039982;28;20076;-70
2022/08/31 14:43:42;;;;;;;10.95;6.82;;;;;;;;;;5036600;28;20518;-70
2022/08/31 14:46:09;;;;;;;11.43;7.18;;;;;;;;;;5038861;28;20496;-69
2022/08/31 14:48:35;;;;;;;9.35;6.53;;;;;;;;;;5042278;28;20037;-71
2022/08/31 14:51:06;;;;;;;8.30;6.22;;;;;;;;;;5038303;28;20510;-69
2022/08/31 14:53:38;;;;;;;6.72;6.00;;;;;;;;;;5037778;28;20132;-72
2022/08/31 14:56:17;;;;;;;9.07;6.38;;;;;;;;;;5038216;28;20132;-69
2022/08/31 14:58:46;;;;;;;7.72;5.97;;;;;;;;;;5040876;28;20048;-69
2022/08/31 15:01:12;;;;;;;7.97;6.32;;;;;;;;;;5041896;28;20518;-70
2022/08/31 15:03:39;;;;;;;8.90;6.00;;;;;;;;;;5037662;28;20417;-70
2022/08/31 15:06:07;;;;;;;8.52;6.50;;;;;;;;;;5042372;28;20120;-69
2022/08/31 15:08:33;;;;;;;6.72;6.03;;;;;;;;;;5037756;28;20049;-71
2022/08/31 15:10:59;;;;;;;8.48;6.63;;;;;;;;;;5041171;28;20590;-71
2022/08/31 15:13:32;;;;;;;8.98;6.85;;;;;;;;;;5026969;28;20048;-71
2022/08/31 15:16:02;;;;;;;8.23;6.90;;;;;;;;;;5041185;28;20037;-72
2022/08/31 15:18:32;;;;;;;8.73;6.78;;;;;;;;;;5032627;28;20056;-71
2022/08/31 15:21:00;;;;;;;7.88;5.90;;;;;;;;;;5037600;28;20052;-71